sensor_id;sensor_type;location;lat;lon;timestamp;pressure;altitude;pressure_sealevel;temperature;humidity
41703;BME280;861;48.808;9.006;2023-04-03T00:01:19;97838.63;;;5.45;70.10
41703;BME280;861;48.808;9.006;2023-04-03T00:03:47;97829.38;;;5.46;70.09
41703;BME280;861;48.808;9.006;2023-04-03T00:06:14;97827.16;;;5.60;68.73
41703;BME280;861;48.808;9.006;2023-04-03T00:08:41;97827.53;;;5.38;69.47
41703;BME280;861;48.808;9.006;2023-04-03T00:11:10;97832.28;;;5.73;68.81
41703;BME280;861;48.808;9.006;2023-04-03T00:13:38;97827.00;;;5.44;69.38
41703;BME280;861;48.808;9.006;2023-04-03T00:16:08;97832.28;;;5.73;68.57
41703;BME280;861;48.808;9.006;2023-04-03T00:18:38;97832.06;;;5.78;68.22
41703;BME280;861;48.808;9.006;2023-04-03T00:21:08;97825.03;;;5.86;68.76
41703;BME280;861;48.808;9.006;2023-04-03T00:23:38;97829.78;;;5.68;69.03
41703;BME280;861;48.808;9.006;2023-04-03T00:26:05;97836.22;;;5.76;68.98
41703;BME280;861;48.808;9.006;2023-04-03T00:28:32;97834.25;;;5.85;68.93
41703;BME280;861;48.808;9.006;2023-04-03T00:30:59;97828.59;;;5.78;69.12
41703;BME280;861;48.808;9.006;2023-04-03T00:33:25;97833.22;;;5.89;69.20
41703;BME280;861;48.808;9.006;2023-04-03T00:35:52;97835.63;;;6.03;68.31
41703;BME280;861;48.808;9.006;2023-04-03T00:38:19;97834.50;;;6.04;68.07
41703;BME280;861;48.808;9.006;2023-04-03T00:40:49;97835.38;;;5.84;69.03
41703;BME280;861;48.808;9.006;2023-04-03T00:43:25;97830.47;;;5.77;69.22
41703;BME280;861;48.808;9.006;2023-04-03T00:45:58;97831.72;;;6.12;67.96
41703;BME280;861;48.808;9.006;2023-04-03T00:48:46;97825.41;;;6.33;66.66
41703;BME280;861;48.808;9.006;2023-04-03T00:51:24;97826.63;;;6.35;65.96
41703;BME280;861;48.808;9.006;2023-04-03T00:54:04;97825.16;;;6.13;67.73
41703;BME280;861;48.808;9.006;2023-04-03T00:56:33;97826.63;;;6.11;67.37
41703;BME280;861;48.808;9.006;2023-04-03T00:59:15;97825.50;;;6.12;67.31
41703;BME280;861;48.808;9.006;2023-04-03T01:01:49;97818.06;;;5.97;68.59
41703;BME280;861;48.808;9.006;2023-04-03T01:04:30;97824.38;;;6.13;67.68
41703;BME280;861;48.808;9.006;2023-04-03T01:07:17;97823.34;;;5.93;67.53
41703;BME280;861;48.808;9.006;2023-04-03T01:09:55;97828.88;;;6.09;67.06
41703;BME280;861;48.808;9.006;2023-04-03T01:12:33;97821.78;;;5.92;68.25
41703;BME280;861;48.808;9.006;2023-04-03T01:15:12;97822.53;;;5.93;68.65
41703;BME280;861;48.808;9.006;2023-04-03T01:26:16;97825.13;;;5.89;68.66
41703;BME280;861;48.808;9.006;2023-04-03T01:28:42;97825.47;;;5.88;68.82
41703;BME280;861;48.808;9.006;2023-04-03T01:34:11;97834.97;;;6.06;67.34
41703;BME280;861;48.808;9.006;2023-04-03T01:36:38;97834.53;;;6.16;67.59
41703;BME280;861;48.808;9.006;2023-04-03T01:39:05;97825.06;;;6.22;67.83
41703;BME280;861;48.808;9.006;2023-04-03T01:41:32;97832.94;;;6.03;68.60
41703;BME280;861;48.808;9.006;2023-04-03T01:43:59;97828.41;;;6.07;68.97
41703;BME280;861;48.808;9.006;2023-04-03T01:46:27;97829.69;;;6.09;68.01
41703;BME280;861;48.808;9.006;2023-04-03T01:48:53;97828.41;;;6.07;68.55
41703;BME280;861;48.808;9.006;2023-04-03T01:51:20;97838.69;;;6.13;68.28
41703;BME280;861;48.808;9.006;2023-04-03T01:53:47;97833.59;;;6.24;67.77
41703;BME280;861;48.808;9.006;2023-04-03T01:56:13;97822.59;;;6.41;67.03
41703;BME280;861;48.808;9.006;2023-04-03T01:58:40;97827.09;;;6.25;66.66
41703;BME280;861;48.808;9.006;2023-04-03T02:01:07;97826.16;;;6.21;67.62
41703;BME280;861;48.808;9.006;2023-04-03T02:03:34;97829.13;;;6.16;67.85
41703;BME280;861;48.808;9.006;2023-04-03T02:06:00;97831.81;;;6.28;66.73
41703;BME280;861;48.808;9.006;2023-04-03T02:08:27;97827.22;;;6.29;66.86
41703;BME280;861;48.808;9.006;2023-04-03T02:10:54;97831.81;;;6.28;66.82
41703;BME280;861;48.808;9.006;2023-04-03T02:13:21;97836.56;;;6.19;67.59
41703;BME280;861;48.808;9.006;2023-04-03T02:15:48;97829.31;;;6.35;67.29
41703;BME280;861;48.808;9.006;2023-04-03T02:18:15;97825.94;;;6.26;67.44
41703;BME280;861;48.808;9.006;2023-04-03T02:20:41;97836.31;;;6.24;67.00
41703;BME280;861;48.808;9.006;2023-04-03T02:23:08;97837.00;;;6.33;66.66
41703;BME280;861;48.808;9.006;2023-04-03T02:25:35;97838.38;;;6.27;67.64
41703;BME280;861;48.808;9.006;2023-04-03T02:28:01;97832.22;;;5.82;68.92
41703;BME280;861;48.808;9.006;2023-04-03T02:30:28;97836.94;;;5.85;69.03
41703;BME280;861;48.808;9.006;2023-04-03T02:32:55;97838.34;;;6.03;68.72
41703;BME280;861;48.808;9.006;2023-04-03T02:35:22;97836.56;;;6.19;68.04
41703;BME280;861;48.808;9.006;2023-04-03T02:37:48;97833.53;;;6.20;67.42
41703;BME280;861;48.808;9.006;2023-04-03T02:40:43;97830.13;;;6.48;66.38
41703;BME280;861;48.808;9.006;2023-04-03T02:43:10;97839.16;;;6.40;66.11
41703;BME280;861;48.808;9.006;2023-04-03T02:45:36;97836.00;;;6.26;67.58
41703;BME280;861;48.808;9.006;2023-04-03T02:48:03;97835.31;;;6.29;67.26
41703;BME280;861;48.808;9.006;2023-04-03T02:50:30;97831.81;;;6.28;67.21
41703;BME280;861;48.808;9.006;2023-04-03T02:52:57;97827.31;;;6.08;67.90
41703;BME280;861;48.808;9.006;2023-04-03T02:55:23;97829.22;;;6.19;67.40
41703;BME280;861;48.808;9.006;2023-04-03T02:57:50;97832.81;;;6.11;67.09
41703;BME280;861;48.808;9.006;2023-04-03T03:00:17;97830.53;;;5.89;68.18
41703;BME280;861;48.808;9.006;2023-04-03T03:02:43;97832.28;;;6.30;67.05
41703;BME280;861;48.808;9.006;2023-04-03T03:05:10;97841.03;;;6.15;67.36
41703;BME280;861;48.808;9.006;2023-04-03T03:07:37;97828.44;;;6.31;66.92
41703;BME280;861;48.808;9.006;2023-04-03T03:10:04;97819.63;;;6.46;66.29
41703;BME280;861;48.808;9.006;2023-04-03T03:12:31;97818.63;;;6.39;66.79
41703;BME280;861;48.808;9.006;2023-04-03T03:14:57;97819.97;;;6.45;66.86
41703;BME280;861;48.808;9.006;2023-04-03T03:17:24;97827.09;;;6.49;67.08
41703;BME280;861;48.808;9.006;2023-04-03T03:19:53;97820.44;;;6.35;65.64
41703;BME280;861;48.808;9.006;2023-04-03T03:22:20;97815.38;;;6.45;66.00
41703;BME280;861;48.808;9.006;2023-04-03T03:24:47;97812.34;;;6.35;66.76
41703;BME280;861;48.808;9.006;2023-04-03T03:27:16;97813.56;;;6.37;65.94
41703;BME280;861;48.808;9.006;2023-04-03T03:29:43;97817.88;;;6.38;66.53
41703;BME280;861;48.808;9.006;2023-04-03T03:32:10;97815.72;;;6.32;65.91
41703;BME280;861;48.808;9.006;2023-04-03T03:34:37;97807.13;;;6.42;65.36
41703;BME280;861;48.808;9.006;2023-04-03T03:37:03;97813.34;;;6.30;66.11
41703;BME280;861;48.808;9.006;2023-04-03T03:39:31;97816.81;;;6.31;66.59
41703;BME280;861;48.808;9.006;2023-04-03T03:41:57;97816.59;;;6.36;65.79
41703;BME280;861;48.808;9.006;2023-04-03T03:44:24;97817.97;;;6.54;65.32
41703;BME280;861;48.808;9.006;2023-04-03T03:46:50;97818.28;;;6.40;65.69
41703;BME280;861;48.808;9.006;2023-04-03T03:49:17;97814.47;;;6.41;65.05
41703;BME280;861;48.808;9.006;2023-04-03T03:51:43;97819.09;;;6.29;65.06
41703;BME280;861;48.808;9.006;2023-04-03T03:54:10;97820.22;;;6.40;65.12
41703;BME280;861;48.808;9.006;2023-04-03T03:56:37;97829.13;;;6.28;64.87
41703;BME280;861;48.808;9.006;2023-04-03T03:59:03;97823.69;;;6.40;65.08
41703;BME280;861;48.808;9.006;2023-04-03T04:01:30;97817.59;;;6.43;64.69
41703;BME280;861;48.808;9.006;2023-04-03T04:03:56;97821.22;;;6.11;65.96
41703;BME280;861;48.808;9.006;2023-04-03T04:06:24;97820.44;;;6.10;65.89
41703;BME280;861;48.808;9.006;2023-04-03T04:08:50;97832.94;;;6.15;65.34
41703;BME280;861;48.808;9.006;2023-04-03T04:11:17;97820.91;;;6.37;65.04
41703;BME280;861;48.808;9.006;2023-04-03T04:13:44;97823.91;;;6.35;63.72
41703;BME280;861;48.808;9.006;2023-04-03T04:16:11;97827.66;;;6.31;63.76
41703;BME280;861;48.808;9.006;2023-04-03T04:18:38;97826.06;;;6.30;63.91
41703;BME280;861;48.808;9.006;2023-04-03T04:21:04;97831.59;;;6.33;64.18
41703;BME280;861;48.808;9.006;2023-04-03T04:23:31;97828.56;;;6.35;63.80
41703;BME280;861;48.808;9.006;2023-04-03T04:25:57;97826.53;;;6.32;63.74
41703;BME280;861;48.808;9.006;2023-04-03T04:28:24;97822.78;;;6.12;64.09
41703;BME280;861;48.808;9.006;2023-04-03T04:30:50;97824.50;;;6.04;64.59
41703;BME280;861;48.808;9.006;2023-04-03T04:33:18;97833.41;;;6.05;64.57
41703;BME280;861;48.808;9.006;2023-04-03T04:35:46;97825.22;;;5.81;64.84
41703;BME280;861;48.808;9.006;2023-04-03T04:38:13;97824.41;;;5.68;65.02
41703;BME280;861;48.808;9.006;2023-04-03T04:40:40;97824.97;;;5.09;66.92
41703;BME280;861;48.808;9.006;2023-04-03T04:43:07;97835.75;;;5.09;67.54
41703;BME280;861;48.808;9.006;2023-04-03T04:45:34;97828.19;;;5.02;66.77
41703;BME280;861;48.808;9.006;2023-04-03T04:48:00;97830.34;;;5.29;66.37
41703;BME280;861;48.808;9.006;2023-04-03T04:50:27;97819.91;;;5.40;65.52
41703;BME280;861;48.808;9.006;2023-04-03T04:52:53;97831.69;;;5.56;64.81
41703;BME280;861;48.808;9.006;2023-04-03T04:55:20;97831.03;;;5.71;65.10
41703;BME280;861;48.808;9.006;2023-04-03T04:57:47;97826.72;;;5.58;65.35
41703;BME280;861;48.808;9.006;2023-04-03T05:00:14;97839.25;;;6.19;66.67
41703;BME280;861;48.808;9.006;2023-04-03T05:02:41;97824.69;;;6.72;68.88
41703;BME280;861;48.808;9.006;2023-04-03T05:05:08;97836.69;;;6.98;63.78
41703;BME280;861;48.808;9.006;2023-04-03T05:07:35;97840.94;;;6.60;60.26
41703;BME280;861;48.808;9.006;2023-04-03T05:10:02;97839.72;;;6.45;61.05
41703;BME280;861;48.808;9.006;2023-04-03T05:12:30;97838.47;;;6.31;60.80
41703;BME280;861;48.808;9.006;2023-04-03T05:14:56;97841.50;;;6.65;61.03
41703;BME280;861;48.808;9.006;2023-04-03T05:17:23;97848.03;;;6.64;61.94
41703;BME280;861;48.808;9.006;2023-04-03T05:19:49;97845.13;;;6.69;58.28
41703;BME280;861;48.808;9.006;2023-04-03T05:22:16;97847.03;;;6.33;60.40
41703;BME280;861;48.808;9.006;2023-04-03T05:24:42;97846.44;;;6.15;61.28
41703;BME280;861;48.808;9.006;2023-04-03T05:27:09;97847.47;;;5.98;60.60
41703;BME280;861;48.808;9.006;2023-04-03T05:29:35;97853.53;;;6.07;61.52
41703;BME280;861;48.808;9.006;2023-04-03T05:32:02;97859.84;;;5.99;61.08
41703;BME280;861;48.808;9.006;2023-04-03T05:34:29;97862.25;;;6.25;60.36
41703;BME280;861;48.808;9.006;2023-04-03T05:36:55;97849.97;;;6.52;60.09
41703;BME280;861;48.808;9.006;2023-04-03T05:39:22;97857.50;;;6.34;60.47
41703;BME280;861;48.808;9.006;2023-04-03T05:41:49;97863.25;;;6.33;60.78
41703;BME280;861;48.808;9.006;2023-04-03T05:44:16;97864.81;;;6.34;60.72
41703;BME280;861;48.808;9.006;2023-04-03T05:46:42;97861.22;;;6.42;60.40
41703;BME280;861;48.808;9.006;2023-04-03T05:49:09;97867.41;;;6.06;62.01
41703;BME280;861;48.808;9.006;2023-04-03T05:51:38;97870.66;;;5.99;62.39
41703;BME280;861;48.808;9.006;2023-04-03T05:54:17;97874.50;;;6.22;62.04
41703;BME280;861;48.808;9.006;2023-04-03T05:56:47;97869.84;;;5.87;63.66
41703;BME280;861;48.808;9.006;2023-04-03T05:59:13;97866.63;;;6.17;61.74
41703;BME280;861;48.808;9.006;2023-04-03T06:01:40;97881.03;;;6.09;62.30
41703;BME280;861;48.808;9.006;2023-04-03T06:04:06;97873.81;;;6.13;62.88
41703;BME280;861;48.808;9.006;2023-04-03T06:07:04;97876.84;;;6.00;63.18
41703;BME280;861;48.808;9.006;2023-04-03T06:09:31;97881.78;;;5.86;62.80
41703;BME280;861;48.808;9.006;2023-04-03T06:11:58;97882.69;;;6.02;61.77
41703;BME280;861;48.808;9.006;2023-04-03T06:14:26;97875.84;;;5.92;63.25
41703;BME280;861;48.808;9.006;2023-04-03T06:16:53;97886.75;;;5.75;65.25
41703;BME280;861;48.808;9.006;2023-04-03T06:19:21;97881.34;;;5.75;65.72
41703;BME280;861;48.808;9.006;2023-04-03T06:21:48;97885.50;;;5.93;64.04
41703;BME280;861;48.808;9.006;2023-04-03T06:24:17;97878.22;;;6.06;64.00
41703;BME280;861;48.808;9.006;2023-04-03T06:26:44;97888.03;;;6.10;63.66
41703;BME280;861;48.808;9.006;2023-04-03T06:29:11;97886.13;;;6.11;63.03
41703;BME280;861;48.808;9.006;2023-04-03T06:31:38;97887.66;;;6.00;63.16
41703;BME280;861;48.808;9.006;2023-04-03T06:34:05;97881.31;;;5.84;64.23
41703;BME280;861;48.808;9.006;2023-04-03T06:36:33;97894.44;;;5.73;65.41
41703;BME280;861;48.808;9.006;2023-04-03T06:39:01;97889.25;;;6.13;63.42
41703;BME280;861;48.808;9.006;2023-04-03T06:41:29;97891.19;;;6.12;63.11
41703;BME280;861;48.808;9.006;2023-04-03T06:43:56;97893.84;;;6.00;64.27
41703;BME280;861;48.808;9.006;2023-04-03T06:46:26;97901.78;;;6.17;62.87
41703;BME280;861;48.808;9.006;2023-04-03T06:48:53;97892.06;;;6.16;63.27
41703;BME280;861;48.808;9.006;2023-04-03T06:51:26;97891.13;;;6.00;64.44
41703;BME280;861;48.808;9.006;2023-04-03T06:53:57;97900.97;;;6.05;65.18
41703;BME280;861;48.808;9.006;2023-04-03T06:56:26;97900.78;;;6.34;63.50
41703;BME280;861;48.808;9.006;2023-04-03T06:58:55;97893.34;;;6.31;62.82
41703;BME280;861;48.808;9.006;2023-04-03T07:01:26;97905.25;;;6.06;64.00
41703;BME280;861;48.808;9.006;2023-04-03T07:03:54;97906.19;;;5.89;64.80
41703;BME280;861;48.808;9.006;2023-04-03T07:06:22;97904.22;;;5.98;64.57
41703;BME280;861;48.808;9.006;2023-04-03T07:08:49;97916.16;;;5.77;65.09
41703;BME280;861;48.808;9.006;2023-04-03T07:11:16;97908.25;;;5.92;63.48
41703;BME280;861;48.808;9.006;2023-04-03T07:13:43;97911.41;;;5.74;64.97
41703;BME280;861;48.808;9.006;2023-04-03T07:16:11;97912.94;;;6.16;62.98
41703;BME280;861;48.808;9.006;2023-04-03T07:18:38;97916.63;;;6.11;64.44
41703;BME280;861;48.808;9.006;2023-04-03T07:21:05;97912.94;;;5.83;64.63
41703;BME280;861;48.808;9.006;2023-04-03T07:23:32;97913.16;;;6.11;64.73
41703;BME280;861;48.808;9.006;2023-04-03T07:25:59;97914.84;;;6.15;64.57
41703;BME280;861;48.808;9.006;2023-04-03T07:28:26;97909.97;;;6.09;65.38
41703;BME280;861;48.808;9.006;2023-04-03T07:31:03;97925.19;;;6.01;65.19
41703;BME280;861;48.808;9.006;2023-04-03T07:33:32;97923.91;;;6.44;62.98
41703;BME280;861;48.808;9.006;2023-04-03T07:35:59;97924.19;;;6.18;64.52
41703;BME280;861;48.808;9.006;2023-04-03T07:38:26;97925.59;;;6.36;64.14
41703;BME280;861;48.808;9.006;2023-04-03T07:40:53;97933.28;;;6.70;63.31
41703;BME280;861;48.808;9.006;2023-04-03T07:43:22;97934.97;;;6.51;64.25
41703;BME280;861;48.808;9.006;2023-04-03T07:45:51;97924.50;;;6.49;64.59
41703;BME280;861;48.808;9.006;2023-04-03T07:48:26;97936.75;;;6.59;63.90
41703;BME280;861;48.808;9.006;2023-04-03T07:50:53;97935.59;;;6.36;64.42
41703;BME280;861;48.808;9.006;2023-04-03T07:53:22;97936.16;;;6.29;64.02
41703;BME280;861;48.808;9.006;2023-04-03T07:55:50;97940.91;;;6.32;63.82
41703;BME280;861;48.808;9.006;2023-04-03T07:58:24;97937.56;;;6.47;63.58
41703;BME280;861;48.808;9.006;2023-04-03T08:00:50;97936.78;;;6.83;61.81
41703;BME280;861;48.808;9.006;2023-04-03T08:03:17;97941.28;;;6.67;62.25
41703;BME280;861;48.808;9.006;2023-04-03T08:05:48;97946.13;;;6.61;62.40
41703;BME280;861;48.808;9.006;2023-04-03T08:08:22;97945.41;;;6.40;64.65
41703;BME280;861;48.808;9.006;2023-04-03T08:10:54;97939.25;;;6.52;64.17
41703;BME280;861;48.808;9.006;2023-04-03T08:13:22;97945.66;;;6.59;63.96
41703;BME280;861;48.808;9.006;2023-04-03T08:15:48;97949.25;;;6.51;63.33
41703;BME280;861;48.808;9.006;2023-04-03T08:18:16;97946.34;;;6.68;63.63
41703;BME280;861;48.808;9.006;2023-04-03T08:20:45;97950.00;;;6.28;64.51
41703;BME280;861;48.808;9.006;2023-04-03T08:23:12;97947.16;;;6.69;63.81
41703;BME280;861;48.808;9.006;2023-04-03T08:25:42;97945.03;;;6.74;64.67
41703;BME280;861;48.808;9.006;2023-04-03T08:28:11;97948.25;;;6.44;64.57
41703;BME280;861;48.808;9.006;2023-04-03T08:30:42;97948.38;;;6.95;62.91
41703;BME280;861;48.808;9.006;2023-04-03T08:33:11;97947.47;;;6.79;64.06
41703;BME280;861;48.808;9.006;2023-04-03T08:35:42;97941.16;;;7.11;63.84
41703;BME280;861;48.808;9.006;2023-04-03T08:38:10;97952.09;;;7.03;63.39
41703;BME280;861;48.808;9.006;2023-04-03T08:40:36;97946.31;;;7.28;62.00
41703;BME280;861;48.808;9.006;2023-04-03T08:43:30;97948.09;;;7.36;62.18
41703;BME280;861;48.808;9.006;2023-04-03T08:46:15;97944.28;;;7.37;62.16
41703;BME280;861;48.808;9.006;2023-04-03T08:48:47;97945.81;;;7.50;60.95
41703;BME280;861;48.808;9.006;2023-04-03T08:51:20;97947.22;;;7.32;62.37
41703;BME280;861;48.808;9.006;2023-04-03T08:54:03;97947.81;;;7.26;61.81
41703;BME280;861;48.808;9.006;2023-04-03T08:56:35;97960.56;;;7.01;62.36
41703;BME280;861;48.808;9.006;2023-04-03T08:59:15;97952.84;;;7.39;61.46
41703;BME280;861;48.808;9.006;2023-04-03T09:01:50;97956.47;;;7.31;63.56
41703;BME280;861;48.808;9.006;2023-04-03T09:04:18;97960.91;;;7.91;61.13
41703;BME280;861;48.808;9.006;2023-04-03T09:06:57;97964.09;;;7.65;60.55
41703;BME280;861;48.808;9.006;2023-04-03T09:09:42;97962.88;;;7.91;59.89
41703;BME280;861;48.808;9.006;2023-04-03T09:12:26;97958.47;;;8.14;59.62
41703;BME280;861;48.808;9.006;2023-04-03T09:15:22;97962.13;;;8.06;59.58
41703;BME280;861;48.808;9.006;2023-04-03T09:21:12;97971.78;;;8.19;58.82
41703;BME280;861;48.808;9.006;2023-04-03T09:23:53;97957.47;;;8.06;60.10
41703;BME280;861;48.808;9.006;2023-04-03T09:26:53;97966.56;;;7.98;59.68
41703;BME280;861;48.808;9.006;2023-04-03T09:29:25;97964.66;;;7.87;60.97
41703;BME280;861;48.808;9.006;2023-04-03T09:32:02;97957.13;;;8.08;59.08
41703;BME280;861;48.808;9.006;2023-04-03T09:34:46;97957.66;;;8.13;59.66
41703;BME280;861;48.808;9.006;2023-04-03T09:37:40;97957.13;;;8.35;59.11
41703;BME280;861;48.808;9.006;2023-04-03T09:40:31;97956.66;;;8.18;59.70
41703;BME280;861;48.808;9.006;2023-04-03T09:43:21;97966.44;;;8.22;58.60
41703;BME280;861;48.808;9.006;2023-04-03T09:45:51;97947.59;;;8.14;57.82
41703;BME280;861;48.808;9.006;2023-04-03T09:48:25;97960.91;;;7.91;58.93
41703;BME280;861;48.808;9.006;2023-04-03T09:51:01;97950.97;;;8.23;57.79
41703;BME280;861;48.808;9.006;2023-04-03T09:53:39;97957.75;;;7.73;59.15
41703;BME280;861;48.808;9.006;2023-04-03T09:59:12;97944.28;;;8.05;58.93
41703;BME280;861;48.808;9.006;2023-04-03T10:02:04;97952.50;;;7.80;58.74
41703;BME280;861;48.808;9.006;2023-04-03T10:05:39;97951.44;;;7.97;55.74
41703;BME280;861;48.808;9.006;2023-04-03T10:31:23;97933.00;;;8.46;53.38
41703;BME280;861;48.808;9.006;2023-04-03T10:34:39;97939.81;;;8.12;54.21
41703;BME280;861;48.808;9.006;2023-04-03T10:37:30;97932.91;;;8.15;55.25
41703;BME280;861;48.808;9.006;2023-04-03T10:46:53;97942.69;;;8.04;54.50
41703;BME280;861;48.808;9.006;2023-04-03T10:50:08;97939.44;;;7.98;55.07
41703;BME280;861;48.808;9.006;2023-04-03T10:56:36;97940.00;;;8.47;53.44
41703;BME280;861;48.808;9.006;2023-04-03T10:59:27;97938.75;;;8.29;52.70
41703;BME280;861;48.808;9.006;2023-04-03T11:02:12;97932.03;;;8.38;52.44
41703;BME280;861;48.808;9.006;2023-04-03T11:04:56;97944.53;;;8.15;52.75
41703;BME280;861;48.808;9.006;2023-04-03T11:07:43;97940.41;;;8.06;54.03
41703;BME280;861;48.808;9.006;2023-04-03T11:10:43;97948.72;;;7.97;54.09
41703;BME280;861;48.808;9.006;2023-04-03T11:13:41;97933.75;;;8.31;52.80
41703;BME280;861;48.808;9.006;2023-04-03T11:16:58;97937.91;;;8.71;51.16
41703;BME280;861;48.808;9.006;2023-04-03T11:19:57;97932.28;;;8.06;53.40
41703;BME280;861;48.808;9.006;2023-04-03T11:22:51;97939.69;;;7.93;53.10
41703;BME280;861;48.808;9.006;2023-04-03T11:25:27;97931.44;;;8.17;54.19
41703;BME280;861;48.808;9.006;2023-04-03T11:27:59;97929.38;;;8.57;51.89
41703;BME280;861;48.808;9.006;2023-04-03T11:33:21;97924.06;;;8.45;52.71
41703;BME280;861;48.808;9.006;2023-04-03T11:36:20;97922.38;;;8.41;53.71
41703;BME280;861;48.808;9.006;2023-04-03T11:38:57;97920.72;;;8.67;51.92
41703;BME280;861;48.808;9.006;2023-04-03T11:41:43;97918.47;;;8.69;52.31
41703;BME280;861;48.808;9.006;2023-04-03T11:44:35;97920.72;;;8.36;51.17
41703;BME280;861;48.808;9.006;2023-04-03T11:47:09;97929.13;;;8.62;51.76
41703;BME280;861;48.808;9.006;2023-04-03T11:50:01;97917.63;;;8.22;52.20
41703;BME280;861;48.808;9.006;2023-04-03T12:05:56;97912.53;;;7.77;54.83
41703;BME280;861;48.808;9.006;2023-04-03T12:11:14;97906.03;;;7.94;53.06
41703;BME280;861;48.808;9.006;2023-04-03T12:16:33;97904.09;;;8.53;52.30
41703;BME280;861;48.808;9.006;2023-04-03T12:19:39;97895.00;;;8.46;52.44
41703;BME280;861;48.808;9.006;2023-04-03T12:22:16;97898.84;;;8.76;51.84
41703;BME280;861;48.808;9.006;2023-04-03T12:24:50;97900.47;;;8.96;52.34
41703;BME280;861;48.808;9.006;2023-04-03T12:27:40;97888.41;;;9.12;51.42
41703;BME280;861;48.808;9.006;2023-04-03T12:30:25;97885.66;;;9.28;50.36
41703;BME280;861;48.808;9.006;2023-04-03T12:37:39;97887.94;;;9.26;48.66
41703;BME280;861;48.808;9.006;2023-04-03T12:40:47;97875.69;;;9.16;46.58
41703;BME280;861;48.808;9.006;2023-04-03T12:43:59;97880.88;;;8.87;48.37
41703;BME280;861;48.808;9.006;2023-04-03T12:46:52;97874.06;;;9.12;48.74
41703;BME280;861;48.808;9.006;2023-04-03T12:49:39;97880.91;;;9.06;48.02
41703;BME280;861;48.808;9.006;2023-04-03T12:52:47;97876.63;;;9.24;48.19
41703;BME280;861;48.808;9.006;2023-04-03T12:55:21;97878.50;;;9.58;46.60
41703;BME280;861;48.808;9.006;2023-04-03T12:57:48;97882.75;;;9.56;48.07
41703;BME280;861;48.808;9.006;2023-04-03T13:00:35;97875.66;;;9.89;48.15
41703;BME280;861;48.808;9.006;2023-04-03T13:03:22;97870.56;;;9.69;48.15
41703;BME280;861;48.808;9.006;2023-04-03T13:05:59;97881.38;;;9.84;47.39
41703;BME280;861;48.808;9.006;2023-04-03T13:08:28;97877.59;;;9.70;49.11
41703;BME280;861;48.808;9.006;2023-04-03T13:11:10;97875.28;;;9.91;46.82
41703;BME280;861;48.808;9.006;2023-04-03T13:13:38;97871.47;;;9.19;48.68
41703;BME280;861;48.808;9.006;2023-04-03T13:16:11;97870.03;;;9.25;48.91
41703;BME280;861;48.808;9.006;2023-04-03T13:18:40;97876.41;;;9.13;49.69
41703;BME280;861;48.808;9.006;2023-04-03T13:21:26;97869.56;;;9.19;49.05
41703;BME280;861;48.808;9.006;2023-04-03T13:24:01;97867.59;;;9.01;49.41
41703;BME280;861;48.808;9.006;2023-04-03T13:26:33;97873.19;;;8.58;50.43
41703;BME280;861;48.808;9.006;2023-04-03T13:29:14;97871.63;;;8.57;50.29
41703;BME280;861;48.808;9.006;2023-04-03T13:31:55;97870.72;;;8.68;49.09
41703;BME280;861;48.808;9.006;2023-04-03T13:34:27;97865.38;;;8.72;49.85
41703;BME280;861;48.808;9.006;2023-04-03T13:37:01;97869.56;;;9.19;49.10
41703;BME280;861;48.808;9.006;2023-04-03T13:39:33;97871.63;;;9.07;49.00
41703;BME280;861;48.808;9.006;2023-04-03T13:42:26;97866.31;;;9.14;49.33
41703;BME280;861;48.808;9.006;2023-04-03T13:45:23;97865.16;;;8.96;50.18
41703;BME280;861;48.808;9.006;2023-04-03T13:48:19;97868.25;;;9.13;49.53
41703;BME280;861;48.808;9.006;2023-04-03T13:51:06;97867.97;;;8.99;50.35
41703;BME280;861;48.808;9.006;2023-04-03T13:53:56;97863.09;;;9.08;49.57
41703;BME280;861;48.808;9.006;2023-04-03T13:56:39;97866.41;;;9.75;47.64
41703;BME280;861;48.808;9.006;2023-04-03T14:01:52;97864.84;;;9.36;47.72
41703;BME280;861;48.808;9.006;2023-04-03T14:04:56;97858.09;;;9.10;47.98
41703;BME280;861;48.808;9.006;2023-04-03T14:07:29;97858.47;;;9.66;47.18
41703;BME280;861;48.808;9.006;2023-04-03T14:09:57;97847.22;;;9.68;46.96
41703;BME280;861;48.808;9.006;2023-04-03T14:12:36;97845.03;;;9.54;47.42
41703;BME280;861;48.808;9.006;2023-04-03T14:15:23;97852.34;;;10.11;46.18
41703;BME280;861;48.808;9.006;2023-04-03T14:17:53;97849.34;;;10.16;44.39
41703;BME280;861;48.808;9.006;2023-04-03T14:20:25;97845.44;;;9.94;45.35
41703;BME280;861;48.808;9.006;2023-04-03T14:22:54;97857.28;;;10.05;45.13
41703;BME280;861;48.808;9.006;2023-04-03T14:25:22;97843.75;;;9.90;45.76
41703;BME280;861;48.808;9.006;2023-04-03T14:27:53;97843.97;;;9.59;46.49
41703;BME280;861;48.808;9.006;2023-04-03T14:30:32;97845.22;;;9.65;46.04
41703;BME280;861;48.808;9.006;2023-04-03T14:33:01;97842.03;;;10.01;45.56
41703;BME280;861;48.808;9.006;2023-04-03T14:35:28;97854.38;;;9.76;45.91
41703;BME280;861;48.808;9.006;2023-04-03T14:37:55;97843.16;;;9.58;46.90
41703;BME280;861;48.808;9.006;2023-04-03T14:40:27;97844.88;;;9.66;46.76
41703;BME280;861;48.808;9.006;2023-04-03T14:42:55;97843.78;;;9.71;46.21
41703;BME280;861;48.808;9.006;2023-04-03T14:45:23;97848.19;;;9.98;46.14
41703;BME280;861;48.808;9.006;2023-04-03T14:47:54;97842.13;;;9.44;46.54
41703;BME280;861;48.808;9.006;2023-04-03T14:50:26;97840.81;;;9.57;47.04
41703;BME280;861;48.808;9.006;2023-04-03T14:52:58;97838.69;;;9.27;45.83
41703;BME280;861;48.808;9.006;2023-04-03T14:55:26;97834.72;;;9.25;46.21
41703;BME280;861;48.808;9.006;2023-04-03T14:57:54;97833.69;;;9.29;45.81
41703;BME280;861;48.808;9.006;2023-04-03T15:00:22;97831.44;;;9.35;46.64
41703;BME280;861;48.808;9.006;2023-04-03T15:02:49;97829.19;;;9.79;44.93
41703;BME280;861;48.808;9.006;2023-04-03T15:05:17;97825.69;;;9.78;44.60
41703;BME280;861;48.808;9.006;2023-04-03T15:07:54;97832.91;;;9.71;43.87
41703;BME280;861;48.808;9.006;2023-04-03T15:10:31;97825.94;;;9.31;45.53
41703;BME280;861;48.808;9.006;2023-04-03T15:12:58;97821.91;;;10.05;45.44
41703;BME280;861;48.808;9.006;2023-04-03T15:15:29;97826.84;;;10.67;44.04
41703;BME280;861;48.808;9.006;2023-04-03T15:17:58;97826.19;;;11.04;43.38
41703;BME280;861;48.808;9.006;2023-04-03T15:20:28;97833.41;;;10.40;42.87
41703;BME280;861;48.808;9.006;2023-04-03T15:22:57;97827.28;;;10.21;44.15
41703;BME280;861;48.808;9.006;2023-04-03T15:25:27;97828.16;;;10.28;43.25